sensor_id;sensor_type;location;lat;lon;timestamp;P1;durP1;ratioP1;P2;durP2;ratioP2
18647;SDS011;9453;50.294;18.644;2022-11-15T05:05:38;39.63;;;16.33;;
18647;SDS011;9453;50.294;18.644;2022-11-15T05:08:05;43.80;;;17.07;;
18647;SDS011;9453;50.294;18.644;2022-11-15T05:10:32;48.27;;;18.53;;
18647;SDS011;9453;50.294;18.644;2022-11-15T05:12:59;64.50;;;21.43;;
18647;SDS011;9453;50.294;18.644;2022-11-15T05:15:26;64.03;;;19.83;;
18647;SDS011;9453;50.294;18.644;2022-11-15T05:17:58;56.73;;;19.63;;
18647;SDS011;9453;50.294;18.644;2022-11-15T05:20:25;39.70;;;16.63;;
18647;SDS011;9453;50.294;18.644;2022-11-15T05:22:52;60.27;;;20.73;;
18647;SDS011;9453;50.294;18.644;2022-11-15T05:25:20;57.10;;;19.80;;
18647;SDS011;9453;50.294;18.644;2022-11-15T05:27:47;59.43;;;18.83;;
18647;SDS011;9453;50.294;18.644;2022-11-15T05:30:14;42.40;;;16.27;;
18647;SDS011;9453;50.294;18.644;2022-11-15T05:32:42;48.17;;;18.33;;
18647;SDS011;9453;50.294;18.644;2022-11-15T05:35:11;37.63;;;17.43;;
18647;SDS011;9453;50.294;18.644;2022-11-15T05:37:41;40.67;;;16.93;;
18647;SDS011;9453;50.294;18.644;2022-11-15T05:40:08;49.63;;;18.60;;
18647;SDS011;9453;50.294;18.644;2022-11-15T05:42:35;36.27;;;16.53;;
18647;SDS011;9453;50.294;18.644;2022-11-15T05:45:03;42.10;;;17.30;;
18647;SDS011;9453;50.294;18.644;2022-11-15T05:47:32;46.90;;;17.70;;
18647;SDS011;9453;50.294;18.644;2022-11-15T05:50:04;59.87;;;24.57;;
18647;SDS011;9453;50.294;18.644;2022-11-15T05:52:33;66.03;;;25.87;;
18647;SDS011;9453;50.294;18.644;2022-11-15T05:55:02;60.50;;;24.90;;
18647;SDS011;9453;50.294;18.644;2022-11-15T05:57:43;61.77;;;24.33;;
18647;SDS011;9453;50.294;18.644;2022-11-15T06:00:11;50.87;;;21.47;;
18647;SDS011;9453;50.294;18.644;2022-11-15T06:02:39;46.27;;;21.20;;
18647;SDS011;9453;50.294;18.644;2022-11-15T06:05:06;54.40;;;23.87;;
18647;SDS011;9453;50.294;18.644;2022-11-15T06:07:35;50.27;;;21.93;;
18647;SDS011;9453;50.294;18.644;2022-11-15T06:10:02;50.13;;;21.67;;
18647;SDS011;9453;50.294;18.644;2022-11-15T06:12:29;53.20;;;23.17;;
18647;SDS011;9453;50.294;18.644;2022-11-15T06:14:56;55.00;;;23.13;;
18647;SDS011;9453;50.294;18.644;2022-11-15T06:17:23;60.17;;;22.43;;
18647;SDS011;9453;50.294;18.644;2022-11-15T06:19:50;64.60;;;25.93;;
18647;SDS011;9453;50.294;18.644;2022-11-15T06:22:17;48.33;;;22.07;;
18647;SDS011;9453;50.294;18.644;2022-11-15T06:24:45;47.67;;;21.80;;
18647;SDS011;9453;50.294;18.644;2022-11-15T06:27:12;44.87;;;19.17;;
18647;SDS011;9453;50.294;18.644;2022-11-15T06:29:39;41.63;;;17.47;;
18647;SDS011;9453;50.294;18.644;2022-11-15T06:32:06;40.70;;;17.83;;
18647;SDS011;9453;50.294;18.644;2022-11-15T06:34:33;40.73;;;17.60;;
18647;SDS011;9453;50.294;18.644;2022-11-15T06:37:00;37.40;;;17.43;;
18647;SDS011;9453;50.294;18.644;2022-11-15T06:39:28;53.97;;;21.43;;
18647;SDS011;9453;50.294;18.644;2022-11-15T06:41:56;41.77;;;18.00;;
18647;SDS011;9453;50.294;18.644;2022-11-15T06:44:23;68.47;;;26.90;;
18647;SDS011;9453;50.294;18.644;2022-11-15T06:46:50;69.53;;;29.83;;
18647;SDS011;9453;50.294;18.644;2022-11-15T06:49:17;69.27;;;27.80;;
18647;SDS011;9453;50.294;18.644;2022-11-15T06:51:44;62.53;;;26.13;;
18647;SDS011;9453;50.294;18.644;2022-11-15T06:54:11;46.47;;;19.83;;
18647;SDS011;9453;50.294;18.644;2022-11-15T06:56:38;45.27;;;19.53;;
18647;SDS011;9453;50.294;18.644;2022-11-15T06:59:06;49.13;;;20.77;;
18647;SDS011;9453;50.294;18.644;2022-11-15T07:01:33;45.90;;;20.27;;
18647;SDS011;9453;50.294;18.644;2022-11-15T07:04:00;54.27;;;21.47;;
18647;SDS011;9453;50.294;18.644;2022-11-15T07:06:27;50.23;;;19.17;;
18647;SDS011;9453;50.294;18.644;2022-11-15T07:08:57;43.63;;;17.93;;
18647;SDS011;9453;50.294;18.644;2022-11-15T07:11:24;39.80;;;18.83;;
18647;SDS011;9453;50.294;18.644;2022-11-15T07:13:51;35.37;;;16.20;;
18647;SDS011;9453;50.294;18.644;2022-11-15T07:16:22;43.10;;;17.50;;
18647;SDS011;9453;50.294;18.644;2022-11-15T07:18:49;46.03;;;17.20;;
18647;SDS011;9453;50.294;18.644;2022-11-15T07:21:16;33.33;;;15.57;;
18647;SDS011;9453;50.294;18.644;2022-11-15T07:23:43;40.47;;;16.97;;
18647;SDS011;9453;50.294;18.644;2022-11-15T07:26:10;38.87;;;16.70;;
18647;SDS011;9453;50.294;18.644;2022-11-15T07:28:37;38.87;;;16.60;;
18647;SDS011;9453;50.294;18.644;2022-11-15T07:31:04;42.17;;;20.03;;
18647;SDS011;9453;50.294;18.644;2022-11-15T07:33:33;53.27;;;21.67;;
18647;SDS011;9453;50.294;18.644;2022-11-15T07:36:00;49.60;;;21.53;;
18647;SDS011;9453;50.294;18.644;2022-11-15T07:38:28;38.67;;;18.10;;
18647;SDS011;9453;50.294;18.644;2022-11-15T07:40:56;50.37;;;22.10;;
18647;SDS011;9453;50.294;18.644;2022-11-15T07:43:24;51.10;;;19.70;;
18647;SDS011;9453;50.294;18.644;2022-11-15T07:45:52;53.90;;;21.87;;
18647;SDS011;9453;50.294;18.644;2022-11-15T07:48:20;45.97;;;18.47;;
18647;SDS011;9453;50.294;18.644;2022-11-15T07:50:48;45.43;;;19.53;;
18647;SDS011;9453;50.294;18.644;2022-11-15T07:53:15;44.70;;;20.60;;
18647;SDS011;9453;50.294;18.644;2022-11-15T07:55:42;43.20;;;19.03;;
18647;SDS011;9453;50.294;18.644;2022-11-15T07:58:09;53.40;;;22.23;;
18647;SDS011;9453;50.294;18.644;2022-11-15T08:00:37;50.50;;;22.80;;
18647;SDS011;9453;50.294;18.644;2022-11-15T08:03:05;47.60;;;21.20;;
18647;SDS011;9453;50.294;18.644;2022-11-15T08:05:37;56.50;;;23.90;;
18647;SDS011;9453;50.294;18.644;2022-11-15T08:08:06;44.83;;;21.50;;
18647;SDS011;9453;50.294;18.644;2022-11-15T08:10:34;53.17;;;22.13;;
18647;SDS011;9453;50.294;18.644;2022-11-15T08:13:03;52.63;;;22.90;;
18647;SDS011;9453;50.294;18.644;2022-11-15T08:15:31;45.50;;;21.97;;
18647;SDS011;9453;50.294;18.644;2022-11-15T08:18:03;55.00;;;25.53;;
18647;SDS011;9453;50.294;18.644;2022-11-15T08:20:31;54.33;;;23.20;;
18647;SDS011;9453;50.294;18.644;2022-11-15T08:22:59;51.13;;;23.63;;
18647;SDS011;9453;50.294;18.644;2022-11-15T08:25:29;50.53;;;24.43;;
18647;SDS011;9453;50.294;18.644;2022-11-15T08:27:59;54.87;;;25.70;;
18647;SDS011;9453;50.294;18.644;2022-11-15T08:30:27;59.00;;;24.07;;
18647;SDS011;9453;50.294;18.644;2022-11-15T08:32:56;57.07;;;26.53;;
18647;SDS011;9453;50.294;18.644;2022-11-15T08:35:24;53.87;;;24.43;;
18647;SDS011;9453;50.294;18.644;2022-11-15T08:37:52;53.13;;;25.20;;
18647;SDS011;9453;50.294;18.644;2022-11-15T08:40:19;53.17;;;23.40;;
18647;SDS011;9453;50.294;18.644;2022-11-15T08:42:48;58.20;;;25.87;;
18647;SDS011;9453;50.294;18.644;2022-11-15T08:45:15;57.83;;;25.50;;
18647;SDS011;9453;50.294;18.644;2022-11-15T08:47:42;45.57;;;20.93;;
18647;SDS011;9453;50.294;18.644;2022-11-15T08:50:09;46.40;;;21.40;;
18647;SDS011;9453;50.294;18.644;2022-11-15T08:52:36;48.33;;;22.50;;
18647;SDS011;9453;50.294;18.644;2022-11-15T08:55:03;40.97;;;20.17;;
18647;SDS011;9453;50.294;18.644;2022-11-15T08:57:31;40.57;;;18.87;;
18647;SDS011;9453;50.294;18.644;2022-11-15T08:59:59;41.07;;;18.17;;
18647;SDS011;9453;50.294;18.644;2022-11-15T09:02:26;35.23;;;16.67;;
18647;SDS011;9453;50.294;18.644;2022-11-15T09:04:53;32.57;;;15.83;;
18647;SDS011;9453;50.294;18.644;2022-11-15T09:07:20;40.20;;;18.37;;
18647;SDS011;9453;50.294;18.644;2022-11-15T09:09:46;41.03;;;17.67;;
18647;SDS011;9453;50.294;18.644;2022-11-15T09:12:13;39.70;;;18.67;;
18647;SDS011;9453;50.294;18.644;2022-11-15T09:14:40;33.70;;;16.37;;
18647;SDS011;9453;50.294;18.644;2022-11-15T09:17:09;32.53;;;16.07;;
18647;SDS011;9453;50.294;18.644;2022-11-15T09:19:36;35.90;;;17.37;;
18647;SDS011;9453;50.294;18.644;2022-11-15T09:22:04;29.57;;;14.30;;
18647;SDS011;9453;50.294;18.644;2022-11-15T09:24:32;34.10;;;15.27;;
18647;SDS011;9453;50.294;18.644;2022-11-15T09:26:59;32.70;;;16.43;;
18647;SDS011;9453;50.294;18.644;2022-11-15T09:29:26;28.23;;;14.57;;
18647;SDS011;9453;50.294;18.644;2022-11-15T09:31:53;26.27;;;13.70;;
18647;SDS011;9453;50.294;18.644;2022-11-15T09:34:22;28.87;;;14.27;;
18647;SDS011;9453;50.294;18.644;2022-11-15T09:36:49;31.67;;;14.70;;
18647;SDS011;9453;50.294;18.644;2022-11-15T09:39:16;31.37;;;14.27;;
18647;SDS011;9453;50.294;18.644;2022-11-15T09:41:49;28.07;;;13.90;;
18647;SDS011;9453;50.294;18.644;2022-11-15T09:44:28;22.57;;;11.83;;
18647;SDS011;9453;50.294;18.644;2022-11-15T09:47:35;28.77;;;13.40;;
18647;SDS011;9453;50.294;18.644;2022-11-15T09:50:12;30.50;;;13.80;;
18647;SDS011;9453;50.294;18.644;2022-11-15T09:52:43;29.53;;;13.80;;
18647;SDS011;9453;50.294;18.644;2022-11-15T09:55:11;25.87;;;13.07;;
18647;SDS011;9453;50.294;18.644;2022-11-15T09:57:47;30.47;;;13.33;;
18647;SDS011;9453;50.294;18.644;2022-11-15T10:00:21;34.83;;;15.50;;
18647;SDS011;9453;50.294;18.644;2022-11-15T10:02:57;36.87;;;16.53;;
18647;SDS011;9453;50.294;18.644;2022-11-15T10:05:36;36.63;;;17.17;;
18647;SDS011;9453;50.294;18.644;2022-11-15T10:08:06;28.53;;;15.50;;
18647;SDS011;9453;50.294;18.644;2022-11-15T10:10:49;35.53;;;16.00;;
18647;SDS011;9453;50.294;18.644;2022-11-15T10:13:19;25.97;;;13.40;;
18647;SDS011;9453;50.294;18.644;2022-11-15T10:15:50;30.77;;;13.57;;
18647;SDS011;9453;50.294;18.644;2022-11-15T10:18:20;31.03;;;14.57;;
18647;SDS011;9453;50.294;18.644;2022-11-15T10:21:02;30.27;;;15.90;;
18647;SDS011;9453;50.294;18.644;2022-11-15T10:23:41;29.87;;;15.27;;
18647;SDS011;9453;50.294;18.644;2022-11-15T10:26:09;29.93;;;14.90;;
18647;SDS011;9453;50.294;18.644;2022-11-15T10:28:39;34.33;;;15.03;;
18647;SDS011;9453;50.294;18.644;2022-11-15T10:31:10;26.60;;;13.80;;
18647;SDS011;9453;50.294;18.644;2022-11-15T10:33:48;29.97;;;14.63;;
18647;SDS011;9453;50.294;18.644;2022-11-15T10:36:22;35.87;;;17.10;;
18647;SDS011;9453;50.294;18.644;2022-11-15T10:38:57;42.13;;;16.17;;
18647;SDS011;9453;50.294;18.644;2022-11-15T10:41:32;36.53;;;16.73;;
18647;SDS011;9453;50.294;18.644;2022-11-15T10:44:03;43.47;;;18.00;;
18647;SDS011;9453;50.294;18.644;2022-11-15T10:46:39;41.93;;;18.57;;
18647;SDS011;9453;50.294;18.644;2022-11-15T10:49:12;35.83;;;16.47;;
18647;SDS011;9453;50.294;18.644;2022-11-15T10:51:43;32.87;;;16.50;;
18647;SDS011;9453;50.294;18.644;2022-11-15T10:54:12;34.93;;;17.03;;
18647;SDS011;9453;50.294;18.644;2022-11-15T10:56:43;33.93;;;15.13;;
18647;SDS011;9453;50.294;18.644;2022-11-15T10:59:23;33.57;;;15.20;;
18647;SDS011;9453;50.294;18.644;2022-11-15T11:01:52;37.93;;;16.67;;
18647;SDS011;9453;50.294;18.644;2022-11-15T11:04:19;31.13;;;14.93;;
18647;SDS011;9453;50.294;18.644;2022-11-15T11:06:48;32.77;;;15.33;;
18647;SDS011;9453;50.294;18.644;2022-11-15T11:09:23;29.53;;;14.30;;
18647;SDS011;9453;50.294;18.644;2022-11-15T11:11:55;24.00;;;13.00;;
18647;SDS011;9453;50.294;18.644;2022-11-15T11:14:23;28.07;;;12.77;;
18647;SDS011;9453;50.294;18.644;2022-11-15T11:16:52;26.07;;;14.10;;
18647;SDS011;9453;50.294;18.644;2022-11-15T11:19:41;24.87;;;12.93;;
18647;SDS011;9453;50.294;18.644;2022-11-15T11:22:22;30.37;;;14.60;;
18647;SDS011;9453;50.294;18.644;2022-11-15T11:24:59;26.57;;;13.00;;
18647;SDS011;9453;50.294;18.644;2022-11-15T11:27:36;25.70;;;13.03;;
18647;SDS011;9453;50.294;18.644;2022-11-15T11:30:13;31.00;;;15.17;;
18647;SDS011;9453;50.294;18.644;2022-11-15T11:35:32;29.50;;;15.03;;
18647;SDS011;9453;50.294;18.644;2022-11-15T11:38:12;26.57;;;13.20;;
18647;SDS011;9453;50.294;18.644;2022-11-15T11:40:52;27.87;;;13.90;;
18647;SDS011;9453;50.294;18.644;2022-11-15T11:43:28;28.63;;;13.60;;
18647;SDS011;9453;50.294;18.644;2022-11-15T11:46:06;28.60;;;14.47;;
18647;SDS011;9453;50.294;18.644;2022-11-15T11:48:44;26.40;;;13.07;;
18647;SDS011;9453;50.294;18.644;2022-11-15T11:51:16;29.43;;;14.37;;
18647;SDS011;9453;50.294;18.644;2022-11-15T11:53:49;30.73;;;14.33;;
18647;SDS011;9453;50.294;18.644;2022-11-15T11:56:22;31.03;;;14.80;;
18647;SDS011;9453;50.294;18.644;2022-11-15T11:58:53;26.60;;;13.73;;
18647;SDS011;9453;50.294;18.644;2022-11-15T12:01:23;23.43;;;12.87;;
18647;SDS011;9453;50.294;18.644;2022-11-15T12:03:55;25.93;;;14.23;;
18647;SDS011;9453;50.294;18.644;2022-11-15T12:06:29;28.20;;;14.10;;
18647;SDS011;9453;50.294;18.644;2022-11-15T12:09:02;27.30;;;14.40;;
18647;SDS011;9453;50.294;18.644;2022-11-15T12:11:42;30.33;;;14.73;;
18647;SDS011;9453;50.294;18.644;2022-11-15T12:14:18;26.60;;;14.17;;
18647;SDS011;9453;50.294;18.644;2022-11-15T12:16:52;28.90;;;14.00;;
18647;SDS011;9453;50.294;18.644;2022-11-15T12:19:19;27.83;;;14.23;;
18647;SDS011;9453;50.294;18.644;2022-11-15T12:21:47;23.40;;;12.45;;
18647;SDS011;9453;50.294;18.644;2022-11-15T12:24:18;29.20;;;14.33;;
18647;SDS011;9453;50.294;18.644;2022-11-15T12:26:49;27.63;;;14.05;;
18647;SDS011;9453;50.294;18.644;2022-11-15T12:29:20;24.33;;;12.98;;
18647;SDS011;9453;50.294;18.644;2022-11-15T12:31:55;27.33;;;13.38;;
18647;SDS011;9453;50.294;18.644;2022-11-15T12:40:27;27.60;;;13.83;;
18647;SDS011;9453;50.294;18.644;2022-11-15T12:43:04;30.70;;;14.15;;
18647;SDS011;9453;50.294;18.644;2022-11-15T12:45:46;31.45;;;14.25;;
18647;SDS011;9453;50.294;18.644;2022-11-15T12:51:12;25.40;;;13.25;;
18647;SDS011;9453;50.294;18.644;2022-11-15T12:53:39;24.17;;;13.50;;
18647;SDS011;9453;50.294;18.644;2022-11-15T12:58:54;24.95;;;12.50;;
18647;SDS011;9453;50.294;18.644;2022-11-15T13:04:26;21.73;;;12.17;;
18647;SDS011;9453;50.294;18.644;2022-11-15T13:06:55;27.48;;;14.48;;
18647;SDS011;9453;50.294;18.644;2022-11-15T13:20:55;35.42;;;17.75;;
18647;SDS011;9453;50.294;18.644;2022-11-15T13:23:22;35.55;;;17.40;;
18647;SDS011;9453;50.294;18.644;2022-11-15T13:28:43;45.17;;;20.42;;
18647;SDS011;9453;50.294;18.644;2022-11-15T13:31:22;40.27;;;19.43;;
18647;SDS011;9453;50.294;18.644;2022-11-15T13:33:55;41.07;;;19.70;;
18647;SDS011;9453;50.294;18.644;2022-11-15T13:36:26;39.13;;;19.43;;
18647;SDS011;9453;50.294;18.644;2022-11-15T13:38:57;38.60;;;20.10;;
18647;SDS011;9453;50.294;18.644;2022-11-15T13:41:26;42.07;;;20.30;;
18647;SDS011;9453;50.294;18.644;2022-11-15T13:43:57;50.97;;;23.37;;
18647;SDS011;9453;50.294;18.644;2022-11-15T13:46:26;50.63;;;22.50;;
18647;SDS011;9453;50.294;18.644;2022-11-15T13:48:55;43.30;;;20.67;;
18647;SDS011;9453;50.294;18.644;2022-11-15T13:51:29;42.73;;;20.20;;
18647;SDS011;9453;50.294;18.644;2022-11-15T13:54:01;40.40;;;19.70;;
18647;SDS011;9453;50.294;18.644;2022-11-15T13:56:38;45.87;;;20.13;;
18647;SDS011;9453;50.294;18.644;2022-11-15T13:59:10;42.60;;;19.17;;
18647;SDS011;9453;50.294;18.644;2022-11-15T14:01:41;44.03;;;21.10;;
18647;SDS011;9453;50.294;18.644;2022-11-15T14:04:11;38.23;;;18.83;;
18647;SDS011;9453;50.294;18.644;2022-11-15T14:06:44;47.00;;;22.97;;
18647;SDS011;9453;50.294;18.644;2022-11-15T14:09:24;43.83;;;19.30;;
18647;SDS011;9453;50.294;18.644;2022-11-15T14:12:23;43.37;;;19.03;;
18647;SDS011;9453;50.294;18.644;2022-11-15T14:14:56;41.00;;;18.47;;
18647;SDS011;9453;50.294;18.644;2022-11-15T14:17:34;47.27;;;21.93;;
18647;SDS011;9453;50.294;18.644;2022-11-15T14:22:53;42.07;;;18.80;;
18647;SDS011;9453;50.294;18.644;2022-11-15T14:25:21;34.17;;;16.83;;
18647;SDS011;9453;50.294;18.644;2022-11-15T14:28:08;43.13;;;16.63;;
18647;SDS011;9453;50.294;18.644;2022-11-15T14:30:56;35.23;;;16.30;;
18647;SDS011;9453;50.294;18.644;2022-11-15T14:33:25;32.60;;;14.47;;
18647;SDS011;9453;50.294;18.644;2022-11-15T14:35:55;36.70;;;16.60;;
18647;SDS011;9453;50.294;18.644;2022-11-15T14:38:23;38.40;;;18.27;;
18647;SDS011;9453;50.294;18.644;2022-11-15T14:40:50;46.47;;;20.57;;
18647;SDS011;9453;50.294;18.644;2022-11-15T14:43:18;39.50;;;18.93;;
18647;SDS011;9453;50.294;18.644;2022-11-15T14:45:45;42.63;;;19.03;;
18647;SDS011;9453;50.294;18.644;2022-11-15T14:48:14;36.83;;;18.10;;
18647;SDS011;9453;50.294;18.644;2022-11-15T14:50:41;36.77;;;16.33;;
18647;SDS011;9453;50.294;18.644;2022-11-15T14:53:11;34.13;;;15.87;;
18647;SDS011;9453;50.294;18.644;2022-11-15T14:55:39;28.33;;;14.53;;
18647;SDS011;9453;50.294;18.644;2022-11-15T14:58:06;28.00;;;13.07;;
18647;SDS011;9453;50.294;18.644;2022-11-15T15:00:34;26.23;;;14.50;;
18647;SDS011;9453;50.294;18.644;2022-11-15T15:03:01;29.60;;;14.30;;
18647;SDS011;9453;50.294;18.644;2022-11-15T15:05:31;23.57;;;11.93;;
18647;SDS011;9453;50.294;18.644;2022-11-15T15:08:00;26.30;;;13.27;;
18647;SDS011;9453;50.294;18.644;2022-11-15T15:10:29;31.17;;;14.37;;
18647;SDS011;9453;50.294;18.644;2022-11-15T15:12:58;30.87;;;14.03;;
18647;SDS011;9453;50.294;18.644;2022-11-15T15:15:26;27.80;;;14.07;;
18647;SDS011;9453;50.294;18.644;2022-11-15T15:17:58;33.93;;;15.83;;
18647;SDS011;9453;50.294;18.644;2022-11-15T15:20:25;43.63;;;19.67;;
18647;SDS011;9453;50.294;18.644;2022-11-15T15:22:53;41.40;;;18.87;;
18647;SDS011;9453;50.294;18.644;2022-11-15T15:25:21;42.43;;;18.53;;
18647;SDS011;9453;50.294;18.644;2022-11-15T15:27:51;66.87;;;28.00;;
18647;SDS011;9453;50.294;18.644;2022-11-15T15:30:19;76.63;;;33.43;;
18647;SDS011;9453;50.294;18.644;2022-11-15T15:32:46;80.63;;;33.47;;
18647;SDS011;9453;50.294;18.644;2022-11-15T15:35:14;96.50;;;35.60;;
18647;SDS011;9453;50.294;18.644;2022-11-15T15:37:42;76.93;;;32.17;;
18647;SDS011;9453;50.294;18.644;2022-11-15T15:40:13;65.37;;;28.40;;
18647;SDS011;9453;50.294;18.644;2022-11-15T15:42:41;56.90;;;26.80;;
18647;SDS011;9453;50.294;18.644;2022-11-15T15:45:09;84.37;;;34.17;;
18647;SDS011;9453;50.294;18.644;2022-11-15T15:47:36;64.70;;;28.67;;
18647;SDS011;9453;50.294;18.644;2022-11-15T15:50:04;57.70;;;26.33;;
18647;SDS011;9453;50.294;18.644;2022-11-15T15:52:46;48.93;;;23.03;;
18647;SDS011;9453;50.294;18.644;2022-11-15T15:55:14;48.93;;;22.33;;
18647;SDS011;9453;50.294;18.644;2022-11-15T15:57:42;43.60;;;20.10;;
18647;SDS011;9453;50.294;18.644;2022-11-15T16:00:09;49.47;;;21.73;;
18647;SDS011;9453;50.294;18.644;2022-11-15T16:02:37;41.47;;;19.13;;
18647;SDS011;9453;50.294;18.644;2022-11-15T16:05:04;45.07;;;20.23;;
18647;SDS011;9453;50.294;18.644;2022-11-15T16:07:32;42.37;;;19.33;;
18647;SDS011;9453;50.294;18.644;2022-11-15T16:09:59;36.30;;;17.07;;
18647;SDS011;9453;50.294;18.644;2022-11-15T16:12:27;58.07;;;24.90;;
18647;SDS011;9453;50.294;18.644;2022-11-15T16:14:54;66.57;;;27.13;;
18647;SDS011;9453;50.294;18.644;2022-11-15T16:17:22;55.33;;;24.83;;
18647;SDS011;9453;50.294;18.644;2022-11-15T16:19:52;57.73;;;25.67;;
18647;SDS011;9453;50.294;18.644;2022-11-15T16:22:19;60.63;;;25.83;;
18647;SDS011;9453;50.294;18.644;2022-11-15T16:24:46;53.57;;;23.40;;
18647;SDS011;9453;50.294;18.644;2022-11-15T16:27:14;48.10;;;21.80;;
18647;SDS011;9453;50.294;18.644;2022-11-15T16:29:45;44.97;;;22.00;;
18647;SDS011;9453;50.294;18.644;2022-11-15T16:32:13;45.50;;;19.73;;
18647;SDS011;9453;50.294;18.644;2022-11-15T16:34:40;46.73;;;22.10;;
18647;SDS011;9453;50.294;18.644;2022-11-15T16:37:08;45.83;;;22.13;;
18647;SDS011;9453;50.294;18.644;2022-11-15T16:39:46;58.33;;;25.73;;
18647;SDS011;9453;50.294;18.644;2022-11-15T16:42:13;63.00;;;28.27;;
18647;SDS011;9453;50.294;18.644;2022-11-15T16:44:40;62.53;;;30.23;;
18647;SDS011;9453;50.294;18.644;2022-11-15T16:47:11;72.87;;;32.73;;
18647;SDS011;9453;50.294;18.644;2022-11-15T16:49:43;72.27;;;33.00;;
18647;SDS011;9453;50.294;18.644;2022-11-15T16:52:11;69.17;;;30.73;;
18647;SDS011;9453;50.294;18.644;2022-11-15T16:54:38;69.73;;;32.47;;
18647;SDS011;9453;50.294;18.644;2022-11-15T16:57:05;66.90;;;30.63;;
18647;SDS011;9453;50.294;18.644;2022-11-15T16:59:33;84.37;;;37.87;;
18647;SDS011;9453;50.294;18.644;2022-11-15T17:02:00;72.37;;;34.03;;
18647;SDS011;9453;50.294;18.644;2022-11-15T17:04:28;69.20;;;31.97;;
18647;SDS011;9453;50.294;18.644;2022-11-15T17:06:59;63.60;;;31.23;;
18647;SDS011;9453;50.294;18.644;2022-11-15T17:09:26;62.43;;;30.20;;
18647;SDS011;9453;50.294;18.644;2022-11-15T17:11:53;65.03;;;30.07;;
18647;SDS011;9453;50.294;18.644;2022-11-15T17:14:20;75.50;;;34.80;;
18647;SDS011;9453;50.294;18.644;2022-11-15T17:16:47;97.97;;;41.93;;
18647;SDS011;9453;50.294;18.644;2022-11-15T17:19:15;82.60;;;38.97;;
18647;SDS011;9453;50.294;18.644;2022-11-15T17:21:44;79.20;;;36.67;;
18647;SDS011;9453;50.294;18.644;2022-11-15T17:24:13;75.47;;;34.90;;
18647;SDS011;9453;50.294;18.644;2022-11-15T17:26:41;82.67;;;39.67;;
18647;SDS011;9453;50.294;18.644;2022-11-15T17:29:08;78.13;;;35.77;;
18647;SDS011;9453;50.294;18.644;2022-11-15T17:31:35;73.53;;;33.73;;
18647;SDS011;9453;50.294;18.644;2022-11-15T17:34:02;71.83;;;34.03;;
18647;SDS011;9453;50.294;18.644;2022-11-15T17:36:30;99.93;;;43.20;;
18647;SDS011;9453;50.294;18.644;2022-11-15T17:38:58;82.47;;;37.83;;
18647;SDS011;9453;50.294;18.644;2022-11-15T17:41:27;91.23;;;40.43;;
18647;SDS011;9453;50.294;18.644;2022-11-15T17:43:54;126.23;;;51.63;;
18647;SDS011;9453;50.294;18.644;2022-11-15T17:46:23;93.07;;;41.47;;
18647;SDS011;9453;50.294;18.644;2022-11-15T17:48:50;94.97;;;42.10;;
18647;SDS011;9453;50.294;18.644;2022-11-15T17:51:17;101.50;;;43.90;;
18647;SDS011;9453;50.294;18.644;2022-11-15T17:53:48;84.83;;;37.00;;
18647;SDS011;9453;50.294;18.644;2022-11-15T17:56:17;84.63;;;37.30;;
18647;SDS011;9453;50.294;18.644;2022-11-15T17:58:49;75.60;;;34.07;;
18647;SDS011;9453;50.294;18.644;2022-11-15T18:01:18;78.83;;;37.33;;
18647;SDS011;9453;50.294;18.644;2022-11-15T18:03:46;82.77;;;35.90;;
18647;SDS011;9453;50.294;18.644;2022-11-15T18:06:14;77.33;;;33.33;;
18647;SDS011;9453;50.294;18.644;2022-11-15T18:08:42;73.17;;;31.60;;
18647;SDS011;9453;50.294;18.644;2022-11-15T18:11:11;91.33;;;37.90;;
18647;SDS011;9453;50.294;18.644;2022-11-15T18:13:41;91.93;;;40.77;;
18647;SDS011;9453;50.294;18.644;2022-11-15T18:16:10;86.33;;;37.43;;
18647;SDS011;9453;50.294;18.644;2022-11-15T18:18:41;76.90;;;34.27;;
18647;SDS011;9453;50.294;18.644;2022-11-15T18:21:09;83.20;;;37.60;;
18647;SDS011;9453;50.294;18.644;2022-11-15T18:23:38;82.80;;;35.37;;
18647;SDS011;9453;50.294;18.644;2022-11-15T18:26:07;82.97;;;36.67;;
18647;SDS011;9453;50.294;18.644;2022-11-15T18:28:36;86.73;;;37.40;;
18647;SDS011;9453;50.294;18.644;2022-11-15T18:31:12;100.63;;;42.13;;
18647;SDS011;9453;50.294;18.644;2022-11-15T18:33:40;98.13;;;40.37;;
18647;SDS011;9453;50.294;18.644;2022-11-15T18:36:09;89.40;;;39.30;;
18647;SDS011;9453;50.294;18.644;2022-11-15T18:38:37;82.93;;;37.43;;
18647;SDS011;9453;50.294;18.644;2022-11-15T18:41:07;94.50;;;38.73;;
18647;SDS011;9453;50.294;18.644;2022-11-15T18:43:35;83.73;;;37.67;;
18647;SDS011;9453;50.294;18.644;2022-11-15T18:46:02;85.40;;;35.83;;
18647;SDS011;9453;50.294;18.644;2022-11-15T18:48:32;79.60;;;35.40;;
18647;SDS011;9453;50.294;18.644;2022-11-15T18:51:01;100.10;;;42.83;;
18647;SDS011;9453;50.294;18.644;2022-11-15T18:53:28;100.17;;;43.83;;
18647;SDS011;9453;50.294;18.644;2022-11-15T18:55:58;93.23;;;39.77;;
18647;SDS011;9453;50.294;18.644;2022-11-15T18:58:28;80.80;;;37.37;;
18647;SDS011;9453;50.294;18.644;2022-11-15T19:01:00;79.97;;;36.57;;
18647;SDS011;9453;50.294;18.644;2022-11-15T19:03:30;87.33;;;36.27;;
18647;SDS011;9453;50.294;18.644;2022-11-15T19:06:02;80.43;;;38.13;;
18647;SDS011;9453;50.294;18.644;2022-11-15T19:08:30;82.27;;;35.57;;
18647;SDS011;9453;50.294;18.644;2022-11-15T19:11:01;70.17;;;32.30;;
18647;SDS011;9453;50.294;18.644;2022-11-15T19:13:29;71.57;;;31.77;;
18647;SDS011;9453;50.294;18.644;2022-11-15T19:15:57;61.37;;;28.27;;
18647;SDS011;9453;50.294;18.644;2022-11-15T19:18:24;68.60;;;30.17;;
18647;SDS011;9453;50.294;18.644;2022-11-15T19:20:53;66.07;;;30.63;;
18647;SDS011;9453;50.294;18.644;2022-11-15T19:23:21;67.07;;;32.37;;
18647;SDS011;9453;50.294;18.644;2022-11-15T19:25:57;75.20;;;32.83;;
18647;SDS011;9453;50.294;18.644;2022-11-15T19:28:25;74.93;;;31.70;;
18647;SDS011;9453;50.294;18.644;2022-11-15T19:31:01;73.53;;;31.07;;
18647;SDS011;9453;50.294;18.644;2022-11-15T19:33:28;68.97;;;31.20;;
18647;SDS011;9453;50.294;18.644;2022-11-15T19:35:59;62.70;;;29.40;;
18647;SDS011;9453;50.294;18.644;2022-11-15T19:38:28;69.77;;;29.47;;
18647;SDS011;9453;50.294;18.644;2022-11-15T19:40:56;62.67;;;28.33;;
18647;SDS011;9453;50.294;18.644;2022-11-15T19:43:24;64.00;;;28.67;;
18647;SDS011;9453;50.294;18.644;2022-11-15T19:45:52;82.67;;;36.67;;
18647;SDS011;9453;50.294;18.644;2022-11-15T19:48:19;98.30;;;43.77;;
18647;SDS011;9453;50.294;18.644;2022-11-15T19:50:46;87.53;;;39.37;;
18647;SDS011;9453;50.294;18.644;2022-11-15T19:53:14;82.47;;;36.00;;
18647;SDS011;9453;50.294;18.644;2022-11-15T19:55:43;73.30;;;33.80;;
18647;SDS011;9453;50.294;18.644;2022-11-15T19:58:19;69.27;;;32.07;;
18647;SDS011;9453;50.294;18.644;2022-11-15T20:00:46;69.67;;;31.20;;
18647;SDS011;9453;50.294;18.644;2022-11-15T20:03:13;88.93;;;38.97;;
18647;SDS011;9453;50.294;18.644;2022-11-15T20:05:40;100.67;;;42.87;;
18647;SDS011;9453;50.294;18.644;2022-11-15T20:08:07;87.20;;;39.10;;
18647;SDS011;9453;50.294;18.644;2022-11-15T20:10:37;113.43;;;47.50;;
18647;SDS011;9453;50.294;18.644;2022-11-15T20:13:04;123.40;;;47.03;;
18647;SDS011;9453;50.294;18.644;2022-11-15T20:15:31;104.37;;;42.43;;